Time;durP1;ratioP1;P1;durP2;ratioP2;P2;SDS_P1;SDS_P2;PMS_P1;PMS_P2;Temp;Humidity;BMP_temperature;BMP_pressure;BME280_temperature;BME280_humidity;BME280_pressure;Samples;Min_cycle;Max_cycle;Signal;HPM_P1;HPM_P2
2022/09/24 00:00:52;;;;;;;2.47;1.40;;;19.90;56.50;;;;;;5085341;28;20084;-62
2022/09/24 00:03:20;;;;;;;2.88;1.60;;;19.90;56.50;;;;;;5085264;28;20316;-61
2022/09/24 00:05:46;;;;;;;3.75;1.80;;;19.80;56.40;;;;;;5085188;28;20016;-60
2022/09/24 00:08:14;;;;;;;3.90;1.80;;;19.80;56.50;;;;;;5085083;28;20159;-60
2022/09/24 00:10:42;;;;;;;5.28;2.17;;;19.80;56.50;;;;;;5085145;28;20012;-61
2022/09/24 00:13:11;;;;;;;2.20;1.60;;;19.90;56.60;;;;;;5083991;28;20066;-61
2022/09/24 00:15:48;;;;;;;2.78;1.63;;;19.80;56.50;;;;;;5085026;28;20261;-61
2022/09/24 00:18:15;;;;;;;3.75;1.50;;;19.80;56.40;;;;;;5085313;28;20024;-60
2022/09/24 00:20:41;;;;;;;2.05;1.42;;;19.80;56.40;;;;;;5084903;28;20016;-60
2022/09/24 00:23:08;;;;;;;2.78;1.77;;;19.80;56.40;;;;;;5084825;28;20031;-60
2022/09/24 00:28:26;;;;;;;2.25;1.30;;;19.80;56.50;;;;;;5084736;28;20019;-61
2022/09/24 00:30:51;;;;;;;2.15;1.77;;;19.80;56.40;;;;;;5084696;28;20040;-59
2022/09/24 00:33:17;;;;;;;1.75;1.45;;;19.80;56.50;;;;;;5084645;28;20046;-60
2022/09/24 00:35:43;;;;;;;2.00;1.33;;;19.80;56.50;;;;;;5084602;28;20023;-60
2022/09/24 00:38:09;;;;;;;3.42;1.48;;;19.80;56.50;;;;;;5084574;28;20020;-60
2022/09/24 00:40:36;;;;;;;2.15;1.38;;;19.80;56.40;;;;;;5084531;28;20021;-60
2022/09/24 00:43:38;;;;;;;2.27;1.33;;;19.80;56.40;;;;;;5084445;28;20016;-61
2022/09/24 00:46:28;;;;;;;2.20;1.67;;;19.70;56.50;;;;;;5084410;28;20027;-60
2022/09/24 00:49:03;;;;;;;4.63;1.58;;;19.80;56.40;;;;;;5083829;28;20036;-61
2022/09/24 00:51:32;;;;;;;2.75;1.45;;;19.70;56.40;;;;;;5084300;28;20075;-61
2022/09/24 00:54:06;;;;;;;3.38;1.45;;;19.70;56.50;;;;;;5084568;28;20013;-61
2022/09/24 00:56:35;;;;;;;1.98;1.60;;;19.80;56.50;;;;;;5084209;28;20028;-62
2022/09/24 00:59:02;;;;;;;4.18;1.80;;;19.70;56.40;;;;;;5084182;28;20243;-61
2022/09/24 01:01:28;;;;;;;5.90;1.40;;;19.70;56.40;;;;;;5066254;28;20016;-62
2022/09/24 01:03:56;;;;;;;3.30;1.90;;;19.70;56.40;;;;;;5084085;28;20024;-61
2022/09/24 01:06:24;;;;;;;2.88;2.00;;;19.70;56.40;;;;;;5084035;28;20027;-61
2022/09/24 01:08:51;;;;;;;2.57;1.57;;;19.70;56.40;;;;;;5066098;28;20029;-61
2022/09/24 01:11:19;;;;;;;1.98;1.23;;;19.70;56.50;;;;;;5083949;28;20016;-61
2022/09/24 01:13:54;;;;;;;2.25;1.27;;;19.70;56.50;;;;;;5083779;28;20041;-61
2022/09/24 01:16:48;;;;;;;1.63;1.30;;;19.70;56.50;;;;;;5083902;28;20065;-60
2022/09/24 01:19:26;;;;;;;2.78;1.60;;;19.70;56.30;;;;;;5084166;28;20028;-61
2022/09/24 01:21:56;;;;;;;4.50;1.83;;;19.70;56.50;;;;;;5083822;28;20016;-62
2022/09/24 01:24:36;;;;;;;2.58;1.60;;;19.70;56.40;;;;;;5083482;28;20312;-61
2022/09/24 01:27:25;;;;;;;3.75;1.88;;;19.70;56.50;;;;;;5084241;28;20073;-61
2022/09/24 01:30:01;;;;;;;3.15;1.75;;;19.70;56.40;;;;;;5083710;28;20020;-62
2022/09/24 01:32:42;;;;;;;2.83;1.65;;;19.70;56.50;;;;;;5065812;28;20016;-61
2022/09/24 01:35:41;;;;;;;2.45;1.38;;;19.70;56.50;;;;;;5083963;28;20279;-60
2022/09/24 01:38:15;;;;;;;3.13;1.30;;;19.70;56.50;;;;;;5080493;28;20093;-61
2022/09/24 01:40:44;;;;;;;2.58;1.55;;;19.60;56.40;;;;;;5083577;28;20024;-61
2022/09/24 01:43:11;;;;;;;2.42;1.40;;;19.60;57.00;;;;;;5083898;28;20130;-62
2022/09/24 01:45:39;;;;;;;2.45;1.40;;;19.60;56.50;;;;;;5083531;28;20029;-61
2022/09/24 01:48:06;;;;;;;2.10;1.33;;;19.60;56.40;;;;;;5083396;28;20040;-61
2022/09/24 01:50:47;;;;;;;1.83;1.48;;;19.60;56.50;;;;;;5083436;28;20304;-61
2022/09/24 01:53:26;;;;;;;2.03;1.25;;;19.60;56.50;;;;;;5083487;28;20016;-61
2022/09/24 01:56:08;;;;;;;2.53;1.33;;;19.60;56.50;;;;;;5083474;28;20020;-61
2022/09/24 01:58:45;;;;;;;2.25;1.52;;;19.60;56.50;;;;;;5083409;28;20320;-61
2022/09/24 02:01:16;;;;;;;3.17;1.35;;;19.60;56.50;;;;;;5083423;28;20028;-61
2022/09/24 02:03:47;;;;;;;2.72;1.40;;;19.60;56.40;;;;;;5065504;28;20120;-61
2022/09/24 02:06:41;;;;;;;2.25;1.38;;;19.60;56.50;;;;;;5083384;28;20245;-61
2022/09/24 02:09:29;;;;;;;3.17;1.92;;;19.60;56.40;;;;;;5083237;28;20300;-60
2022/09/24 02:12:01;;;;;;;2.83;1.80;;;19.60;56.50;;;;;;5083331;28;20021;-61
2022/09/24 02:14:30;;;;;;;1.88;1.30;;;19.60;56.50;;;;;;5083076;28;20048;-61
2022/09/24 02:16:58;;;;;;;1.83;1.33;;;19.60;56.50;;;;;;5083505;28;20024;-61
2022/09/24 02:19:26;;;;;;;2.07;1.60;;;19.60;56.50;;;;;;5083229;28;20103;-61
2022/09/24 02:21:52;;;;;;;;;;;19.60;56.50;;;;;;5083634;28;20012;-61
2022/09/24 02:24:23;;;;;;;2.42;1.58;;;19.60;56.50;;;;;;5065312;28;19907;-61
2022/09/24 02:26:49;;;;;;;2.63;1.55;;;19.60;56.40;;;;;;5083158;28;20012;-62
2022/09/24 02:29:17;;;;;;;2.55;1.65;;;19.60;56.40;;;;;;5083065;28;20092;-61
2022/09/24 02:31:49;;;;;;;2.30;1.37;;;19.60;56.40;;;;;;5083133;28;20293;-61
2022/09/24 02:34:24;;;;;;;3.50;1.70;;;19.60;56.50;;;;;;5083123;28;20252;-62
2022/09/24 02:37:01;;;;;;;4.07;1.60;;;19.60;56.50;;;;;;5085081;28;20016;-61
2022/09/24 02:39:27;;;;;;;2.45;1.50;;;19.50;56.50;;;;;;5086813;28;20350;-62
2022/09/24 02:41:53;;;;;;;2.28;1.50;;;19.60;56.50;;;;;;5086805;28;20020;-61
2022/09/24 02:44:19;;;;;;;2.00;1.52;;;19.50;56.50;;;;;;5086758;28;20020;-61
2022/09/24 02:46:46;;;;;;;2.30;1.30;;;19.50;56.50;;;;;;5086675;28;20020;-61
2022/09/24 02:49:13;;;;;;;1.35;1.20;;;19.50;56.40;;;;;;5086536;28;20255;-61
2022/09/24 02:51:39;;;;;;;2.40;1.40;;;19.50;56.50;;;;;;5086556;28;20328;-62
2022/09/24 02:54:05;;;;;;;3.28;1.55;;;19.50;56.20;;;;;;5086556;28;20027;-61
2022/09/24 02:56:31;;;;;;;2.67;1.58;;;19.50;56.50;;;;;;5086520;28;20013;-61
2022/09/24 02:58:57;;;;;;;1.98;1.35;;;19.50;56.50;;;;;;5086458;28;20021;-62
2022/09/24 03:01:23;;;;;;;1.55;1.20;;;19.50;56.50;;;;;;5086417;28;20058;-60
2022/09/24 03:03:50;;;;;;;2.50;1.45;;;19.50;56.50;;;;;;5086620;28;20021;-62
2022/09/24 03:06:16;;;;;;;1.45;1.20;;;19.50;56.50;;;;;;5086587;28;20021;-61
2022/09/24 03:08:43;;;;;;;3.03;1.55;;;19.50;56.50;;;;;;5086213;28;20320;-61
2022/09/24 03:11:10;;;;;;;2.97;1.42;;;19.50;56.50;;;;;;5086307;28;20406;-60
2022/09/24 03:13:37;;;;;;;2.53;1.75;;;19.50;56.50;;;;;;5086328;28;20043;-61
2022/09/24 03:16:04;;;;;;;1.80;1.30;;;19.50;56.50;;;;;;5086222;28;20016;-61
2022/09/24 03:18:30;;;;;;;1.98;1.40;;;19.50;56.50;;;;;;5086133;28;20300;-61
2022/09/24 03:20:59;;;;;;;1.95;1.15;;;19.50;56.40;;;;;;5086282;28;20244;-61
2022/09/24 03:23:25;;;;;;;1.57;1.40;;;19.50;56.50;;;;;;5086052;28;20069;-61
2022/09/24 03:25:51;;;;;;;2.05;1.60;;;19.50;56.50;;;;;;5085988;28;20190;-61
2022/09/24 03:28:17;;;;;;;1.80;1.17;;;19.50;56.50;;;;;;5085859;28;20058;-61
2022/09/24 03:30:59;;;;;;;1.77;1.25;;;19.50;56.50;;;;;;5085862;28;20031;-60
2022/09/24 03:33:48;;;;;;;1.65;1.05;;;19.50;56.50;;;;;;5085854;28;20077;-61
2022/09/24 03:36:22;;;;;;;2.22;1.33;;;19.40;56.50;;;;;;5077924;28;20111;-61
2022/09/24 03:38:50;;;;;;;1.95;1.20;;;19.40;56.40;;;;;;5086026;28;20020;-61
2022/09/24 03:41:16;;;;;;;2.38;1.67;;;19.50;56.50;;;;;;5085948;28;20021;-61
2022/09/24 03:43:43;;;;;;;1.75;1.23;;;19.40;56.50;;;;;;5085679;28;20028;-61
2022/09/24 03:46:10;;;;;;;2.33;1.42;;;19.40;56.40;;;;;;5085607;28;20308;-61
2022/09/24 03:48:38;;;;;;;2.42;1.23;;;19.40;56.50;;;;;;5085230;28;20025;-60
2022/09/24 03:51:10;;;;;;;1.43;1.10;;;19.40;56.50;;;;;;5085558;28;20017;-61
2022/09/24 03:53:36;;;;;;;1.88;1.30;;;19.40;56.50;;;;;;5085486;28;20016;-60
2022/09/24 03:56:03;;;;;;;1.35;1.17;;;19.40;56.50;;;;;;5085387;28;20091;-61
2022/09/24 03:58:30;;;;;;;1.70;1.20;;;19.40;56.50;;;;;;5085382;28;20308;-61
2022/09/24 04:00:57;;;;;;;2.22;1.30;;;19.40;56.50;;;;;;5085377;28;20024;-62
2022/09/24 04:03:23;;;;;;;1.20;1.00;;;19.40;56.50;;;;;;5085319;28;20024;-60
2022/09/24 04:05:50;;;;;;;1.90;1.33;;;19.40;56.50;;;;;;5085234;28;20024;-61
2022/09/24 04:08:18;;;;;;;2.30;1.35;;;19.40;56.40;;;;;;5085384;28;20056;-61
2022/09/24 04:10:47;;;;;;;2.13;1.60;;;19.40;56.40;;;;;;5085105;28;20016;-61
2022/09/24 04:13:14;;;;;;;2.13;1.40;;;19.40;56.40;;;;;;5084880;28;20016;-61
2022/09/24 04:15:40;;;;;;;1.73;1.17;;;19.40;56.50;;;;;;5085032;28;20043;-61
2022/09/24 04:18:06;;;;;;;2.78;1.30;;;19.40;56.50;;;;;;5085004;28;20029;-61
2022/09/24 04:20:33;;;;;;;1.92;1.30;;;19.40;56.50;;;;;;5084961;28;20212;-61
2022/09/24 04:22:59;;;;;;;1.92;1.17;;;19.30;56.50;;;;;;5084876;28;20213;-61
2022/09/24 04:25:29;;;;;;;2.00;1.10;;;19.40;56.50;;;;;;5085082;28;20294;-60
2022/09/24 04:28:00;;;;;;;2.50;1.38;;;19.40;56.50;;;;;;5084744;28;20020;-61
2022/09/24 04:30:27;;;;;;;1.67;1.08;;;19.40;56.50;;;;;;5084779;28;20034;-61
2022/09/24 04:32:53;;;;;;;1.92;1.30;;;19.30;56.40;;;;;;5084706;28;20032;-61
2022/09/24 04:35:21;;;;;;;4.60;1.65;;;19.30;56.40;;;;;;5084676;28;20013;-61
2022/09/24 04:37:47;;;;;;;1.73;1.42;;;19.40;56.50;;;;;;5084631;28;20062;-61
2022/09/24 04:40:14;;;;;;;3.55;1.20;;;19.30;56.40;;;;;;5084553;28;20020;-61
2022/09/24 04:42:43;;;;;;;1.87;1.43;;;19.30;56.40;;;;;;5084545;28;20342;-62
2022/09/24 04:45:10;;;;;;;2.72;1.50;;;19.30;56.40;;;;;;5084430;28;20028;-62
2022/09/24 04:47:39;;;;;;;1.60;1.15;;;19.30;56.40;;;;;;5084302;28;20021;-61
2022/09/24 04:50:07;;;;;;;3.67;1.40;;;19.30;56.40;;;;;;5084366;28;20017;-62
2022/09/24 04:52:32;;;;;;;2.65;1.40;;;19.30;56.50;;;;;;5084308;28;20054;-61
2022/09/24 04:54:59;;;;;;;2.92;1.65;;;19.30;56.50;;;;;;5084182;28;20021;-60
2022/09/24 04:57:27;;;;;;;1.73;1.13;;;19.30;56.50;;;;;;5084256;28;20332;-61
2022/09/24 04:59:54;;;;;;;2.20;1.20;;;19.30;56.50;;;;;;5083573;28;20020;-61
2022/09/24 05:02:19;;;;;;;1.98;1.65;;;19.30;56.40;;;;;;5084034;28;20336;-60
2022/09/24 05:04:46;;;;;;;1.88;1.10;;;19.30;56.40;;;;;;5084075;28;20066;-61
2022/09/24 05:07:12;;;;;;;1.50;1.08;;;19.30;56.40;;;;;;5083925;28;20031;-60
2022/09/24 05:09:38;;;;;;;3.03;1.30;;;19.30;56.40;;;;;;5083912;28;20013;-61
2022/09/24 05:12:04;;;;;;;2.42;1.27;;;19.30;56.40;;;;;;5084221;28;20024;-62
2022/09/24 05:14:30;;;;;;;2.72;1.25;;;19.30;56.40;;;;;;5083683;28;20050;-61
2022/09/24 05:16:56;;;;;;;1.70;1.05;;;19.30;56.40;;;;;;5083830;28;20232;-62
2022/09/24 05:19:22;;;;;;;1.85;1.02;;;19.30;56.40;;;;;;5083812;28;20209;-61
2022/09/24 05:21:48;;;;;;;2.20;1.23;;;19.30;56.40;;;;;;5083719;28;20027;-61
2022/09/24 05:24:14;;;;;;;1.38;1.02;;;19.30;56.30;;;;;;5083725;28;20016;-62
2022/09/24 05:29:24;;;;;;;2.25;1.40;;;19.30;56.40;;;;;;5083723;28;20216;-61
2022/09/24 05:31:50;;;;;;;1.30;1.00;;;19.30;56.30;;;;;;5083667;28;20017;-61
2022/09/24 05:34:16;;;;;;;2.65;1.30;;;19.30;56.30;;;;;;5083588;28;20016;-61
2022/09/24 05:36:42;;;;;;;1.38;1.20;;;19.30;56.30;;;;;;5083600;28;20017;-61
2022/09/24 05:39:10;;;;;;;2.10;1.17;;;19.30;56.30;;;;;;5083842;28;20054;-61
2022/09/24 05:41:36;;;;;;;1.63;1.27;;;19.30;56.30;;;;;;5083577;28;20027;-61
2022/09/24 05:44:03;;;;;;;1.98;1.70;;;19.30;56.30;;;;;;5083441;28;20573;-61
2022/09/24 05:46:28;;;;;;;1.65;1.00;;;19.30;56.30;;;;;;5083785;28;20052;-62
2022/09/24 05:48:54;;;;;;;1.67;1.08;;;19.30;56.30;;;;;;5083422;28;20070;-61
2022/09/24 05:51:21;;;;;;;3.22;1.50;;;19.30;56.30;;;;;;5083467;28;20231;-61
2022/09/24 05:53:49;;;;;;;3.40;1.25;;;19.30;56.30;;;;;;5083432;28;20020;-61
2022/09/24 05:56:15;;;;;;;1.58;1.25;;;19.30;56.30;;;;;;5083464;28;20013;-61
2022/09/24 05:58:40;;;;;;;1.50;1.02;;;19.30;56.30;;;;;;5083371;28;20035;-61
2022/09/24 06:01:09;;;;;;;1.77;1.20;;;19.30;56.20;;;;;;5083398;28;20193;-61
2022/09/24 06:03:35;;;;;;;;;;;19.30;56.30;;;;;;5083789;28;20024;-62
2022/09/24 06:06:03;;;;;;;1.42;1.15;;;19.30;56.30;;;;;;5083378;28;20182;-61
2022/09/24 06:08:30;;;;;;;;;;;19.30;56.20;;;;;;5083906;28;20027;-61
2022/09/24 06:11:01;;;;;;;1.60;1.30;;;19.30;56.30;;;;;;5085061;28;19922;-61
2022/09/24 06:13:27;;;;;;;1.60;1.10;;;19.40;56.20;;;;;;5087400;28;20062;-62
2022/09/24 06:16:00;;;;;;;1.50;1.20;;;19.30;56.10;;;;;;5087377;28;20040;-61
2022/09/24 06:18:26;;;;;;;1.95;1.20;;;19.30;56.80;;;;;;5069457;28;20020;-61
2022/09/24 06:20:51;;;;;;;1.55;1.08;;;19.30;56.20;;;;;;5087188;28;20020;-61
2022/09/24 06:23:17;;;;;;;2.70;1.65;;;19.40;56.20;;;;;;5087166;28;20044;-61
2022/09/24 06:25:47;;;;;;;1.48;1.17;;;19.40;56.20;;;;;;5087164;28;20063;-61
2022/09/24 06:28:13;;;;;;;2.53;1.00;;;19.30;56.20;;;;;;5086991;28;20048;-61
2022/09/24 06:30:40;;;;;;;1.92;1.50;;;19.40;56.20;;;;;;5087297;28;20016;-61
2022/09/24 06:33:10;;;;;;;3.15;1.42;;;19.40;56.20;;;;;;5086913;28;20021;-61
2022/09/24 06:35:37;;;;;;;1.20;1.10;;;19.30;56.10;;;;;;5086933;28;20095;-61
2022/09/24 06:38:04;;;;;;;2.30;1.17;;;19.40;56.20;;;;;;5086895;28;20044;-60
2022/09/24 06:40:31;;;;;;;1.58;1.30;;;19.30;56.10;;;;;;5087099;28;20087;-61
2022/09/24 06:42:57;;;;;;;1.40;1.20;;;19.40;56.20;;;;;;5086796;28;20024;-61
2022/09/24 06:45:24;;;;;;;2.28;1.20;;;19.30;56.20;;;;;;5086740;28;20205;-61
2022/09/24 06:47:58;;;;;;;1.90;1.13;;;19.30;56.20;;;;;;5086614;28;20316;-61
2022/09/24 06:50:26;;;;;;;1.38;1.05;;;19.30;56.20;;;;;;5086889;28;20200;-61
2022/09/24 06:52:51;;;;;;;1.45;1.35;;;19.30;56.20;;;;;;5086598;28;20024;-61
2022/09/24 06:55:18;;;;;;;2.05;1.40;;;19.30;56.30;;;;;;5086541;28;20025;-61
2022/09/24 06:57:44;;;;;;;2.42;1.25;;;19.30;56.20;;;;;;5086521;28;20079;-62
2022/09/24 07:00:11;;;;;;;2.10;1.50;;;19.30;56.20;;;;;;5086472;28;20016;-62
2022/09/24 07:02:37;;;;;;;2.47;1.40;;;19.30;56.20;;;;;;5086421;28;20020;-60
2022/09/24 07:05:03;;;;;;;2.83;1.73;;;19.40;56.20;;;;;;5086392;28;20020;-60
2022/09/24 07:07:31;;;;;;;2.25;1.10;;;19.40;56.20;;;;;;5086171;28;20035;-61
2022/09/24 07:09:59;;;;;;;1.10;1.00;;;19.40;56.20;;;;;;5086574;28;20012;-62
2022/09/24 07:12:25;;;;;;;2.00;1.10;;;19.40;56.20;;;;;;5086197;28;20022;-61
2022/09/24 07:14:50;;;;;;;1.83;1.23;;;19.40;56.20;;;;;;5086037;28;20049;-60
2022/09/24 07:17:17;;;;;;;1.48;1.15;;;19.40;56.20;;;;;;5086185;28;20066;-61
2022/09/24 07:19:42;;;;;;;1.92;1.48;;;19.40;56.10;;;;;;5086140;28;20020;-62
2022/09/24 07:22:08;;;;;;;1.33;1.02;;;19.40;56.20;;;;;;5085473;28;20023;-61
2022/09/24 07:24:34;;;;;;;2.75;1.50;;;19.40;56.10;;;;;;5086052;28;20058;-61
2022/09/24 07:27:02;;;;;;;2.08;1.30;;;19.40;56.10;;;;;;5085997;28;20370;-61
2022/09/24 07:29:28;;;;;;;1.85;1.27;;;19.50;56.00;;;;;;5085947;28;20020;-61
2022/09/24 07:31:53;;;;;;;1.42;1.20;;;19.50;56.00;;;;;;5085943;28;20024;-60
2022/09/24 07:34:19;;;;;;;1.67;1.10;;;19.50;56.00;;;;;;5085875;28;20076;-60
2022/09/24 07:36:45;;;;;;;2.00;1.40;;;19.50;56.00;;;;;;5085853;28;20020;-60
2022/09/24 07:39:11;;;;;;;1.60;1.05;;;19.40;56.00;;;;;;5085812;28;20016;-61
2022/09/24 07:41:37;;;;;;;1.83;1.30;;;19.40;56.00;;;;;;5085756;28;20024;-60
2022/09/24 07:44:03;;;;;;;1.80;1.20;;;19.50;56.00;;;;;;5085686;28;20016;-60
2022/09/24 07:46:29;;;;;;;2.13;1.40;;;19.40;56.10;;;;;;5085672;28;20027;-59
2022/09/24 07:48:55;;;;;;;2.35;1.58;;;19.40;56.10;;;;;;5085528;28;20062;-61
2022/09/24 07:51:24;;;;;;;2.08;1.42;;;19.40;56.20;;;;;;5085591;28;20021;-61
2022/09/24 07:53:50;;;;;;;1.20;0.90;;;19.40;56.30;;;;;;5085505;28;20189;-61
2022/09/24 07:56:16;;;;;;;1.67;1.20;;;19.30;56.30;;;;;;5085464;28;20013;-61
2022/09/24 07:58:42;;;;;;;1.75;1.10;;;19.30;56.50;;;;;;5085683;28;20020;-60
2022/09/24 08:01:08;;;;;;;1.33;1.02;;;19.30;56.40;;;;;;5085322;28;20016;-61
2022/09/24 08:03:34;;;;;;;1.45;1.13;;;19.40;56.40;;;;;;5085328;28;20020;-61
2022/09/24 08:06:00;;;;;;;1.02;0.90;;;19.40;56.30;;;;;;5085298;28;20055;-60
2022/09/24 08:08:26;;;;;;;1.38;1.05;;;19.40;56.20;;;;;;5085429;28;20024;-61
2022/09/24 08:10:52;;;;;;;1.83;1.20;;;19.40;56.20;;;;;;5085155;28;20076;-61
2022/09/24 08:13:18;;;;;;;1.30;1.02;;;19.40;56.20;;;;;;5084926;28;20063;-60
2022/09/24 08:15:44;;;;;;;2.50;1.40;;;19.40;56.30;;;;;;5085116;28;20078;-61
2022/09/24 08:18:10;;;;;;;1.35;0.80;;;19.40;56.40;;;;;;5085018;28;20204;-61
2022/09/24 08:20:37;;;;;;;1.17;1.02;;;19.40;56.50;;;;;;5085259;28;20024;-61
2022/09/24 08:23:05;;;;;;;2.17;1.20;;;19.30;56.50;;;;;;5084934;28;20020;-61
2022/09/24 08:25:31;;;;;;;2.22;1.48;;;19.30;56.60;;;;;;5084891;28;20357;-61
2022/09/24 08:28:05;;;;;;;1.65;1.30;;;19.30;56.50;;;;;;5084742;28;20040;-61
2022/09/24 08:30:33;;;;;;;2.13;1.25;;;19.40;56.50;;;;;;5084748;28;20013;-62
2022/09/24 08:32:58;;;;;;;1.73;1.17;;;19.40;56.50;;;;;;5084699;28;20012;-60
2022/09/24 08:35:24;;;;;;;1.80;1.00;;;19.40;56.50;;;;;;5083744;28;20330;-61
2022/09/24 08:37:53;;;;;;;1.88;1.40;;;19.40;56.50;;;;;;5084626;28;20020;-61
2022/09/24 08:40:24;;;;;;;;;;;19.40;56.50;;;;;;5067177;28;20027;-61
2022/09/24 08:43:22;;;;;;;2.20;1.30;;;19.40;56.60;;;;;;5084514;28;19938;-61
2022/09/24 08:48:41;;;;;;;1.77;1.10;;;19.40;56.60;;;;;;5084371;28;20084;-60
2022/09/24 08:51:13;;;;;;;1.55;1.35;;;19.40;56.60;;;;;;5084370;28;20012;-61
2022/09/24 08:53:52;;;;;;;2.35;1.58;;;19.40;56.60;;;;;;5084347;28;20228;-59
2022/09/24 08:56:24;;;;;;;2.83;2.05;;;19.40;56.50;;;;;;5084309;28;20189;-60
2022/09/24 08:59:23;;;;;;;1.98;1.35;;;19.40;56.50;;;;;;5084244;28;20079;-61
2022/09/24 09:01:54;;;;;;;1.42;1.08;;;19.40;56.50;;;;;;5080234;28;20028;-62
2022/09/24 09:04:26;;;;;;;1.73;1.20;;;19.40;56.40;;;;;;5084141;28;20020;-61
2022/09/24 09:07:08;;;;;;;1.92;1.73;;;19.40;56.40;;;;;;5084091;28;20025;-61
2022/09/24 09:09:58;;;;;;;1.73;1.27;;;19.40;56.40;;;;;;5084338;28;20031;-60
2022/09/24 09:12:41;;;;;;;1.98;1.42;;;19.40;56.40;;;;;;5084009;28;20027;-60
2022/09/24 09:15:17;;;;;;;1.50;1.20;;;19.50;56.40;;;;;;5083787;28;20348;-63
2022/09/24 09:18:00;;;;;;;1.00;0.90;;;19.50;56.40;;;;;;5083929;28;20020;-61
2022/09/24 09:20:54;;;;;;;2.38;1.42;;;19.50;56.40;;;;;;5083883;28;20244;-60
2022/09/24 09:23:47;;;;;;;1.77;1.15;;;19.50;56.40;;;;;;5081849;28;20032;-60
2022/09/24 09:26:17;;;;;;;1.40;1.00;;;19.50;56.40;;;;;;5081429;28;20058;-61
2022/09/24 09:28:44;;;;;;;1.50;1.10;;;19.50;56.40;;;;;;5083713;28;20081;-60
2022/09/24 09:31:29;;;;;;;1.65;1.13;;;19.50;56.30;;;;;;5084067;28;20027;-61
2022/09/24 09:34:28;;;;;;;1.20;1.00;;;19.50;56.30;;;;;;5083764;28;20024;-60
2022/09/24 09:36:57;;;;;;;1.67;1.08;;;19.50;56.40;;;;;;5083756;28;20020;-60
2022/09/24 09:39:37;;;;;;;1.13;1.02;;;19.50;56.40;;;;;;5083687;28;20020;-61
2022/09/24 09:42:26;;;;;;;1.50;1.13;;;19.50;56.40;;;;;;5083657;28;20043;-60
2022/09/24 09:44:52;;;;;;;1.20;1.10;;;19.50;56.30;;;;;;5083364;28;20193;-60
2022/09/24 09:47:40;;;;;;;1.63;0.95;;;19.50;56.40;;;;;;5083456;28;20032;-60
2022/09/24 09:50:29;;;;;;;1.55;1.15;;;19.50;56.30;;;;;;5083581;28;20016;-60
2022/09/24 09:52:55;;;;;;;1.80;1.27;;;19.50;56.30;;;;;;5065638;28;20070;-61
2022/09/24 09:55:28;;;;;;;1.58;1.15;;;19.50;56.30;;;;;;5083477;28;20279;-60
2022/09/24 09:58:21;;;;;;;1.95;1.75;;;19.50;56.30;;;;;;5083747;28;20023;-60
2022/09/24 10:00:48;;;;;;;1.80;1.10;;;19.50;56.30;;;;;;5083458;28;20031;-61
2022/09/24 10:03:45;;;;;;;1.40;1.17;;;19.50;56.40;;;;;;5083420;28;20339;-61
2022/09/24 10:06:21;;;;;;;1.40;1.08;;;19.50;56.30;;;;;;5083363;28;20021;-61
2022/09/24 10:08:47;;;;;;;1.42;0.88;;;19.50;56.40;;;;;;5083305;28;20044;-61
2022/09/24 10:11:15;;;;;;;1.42;1.13;;;19.60;56.40;;;;;;5083290;28;20066;-61
2022/09/24 10:13:42;;;;;;;2.35;1.10;;;19.60;56.30;;;;;;5083053;28;20044;-62
2022/09/24 10:16:10;;;;;;;1.00;0.85;;;19.50;56.20;;;;;;5083228;28;20040;-63
2022/09/24 10:18:49;;;;;;;2.45;1.25;;;19.60;56.30;;;;;;5083252;28;20031;-62
2022/09/24 10:21:36;;;;;;;1.63;1.20;;;19.60;56.30;;;;;;5083185;28;20096;-61
2022/09/24 10:24:10;;;;;;;1.48;1.25;;;19.60;56.30;;;;;;5083167;28;20076;-60
2022/09/24 10:26:41;;;;;;;1.10;1.00;;;19.60;56.30;;;;;;5083151;28;20050;-60
2022/09/24 10:32:21;;;;;;;1.30;1.20;;;19.60;56.20;;;;;;5083142;28;20081;-60
2022/09/24 10:35:04;;;;;;;1.42;1.20;;;19.60;56.20;;;;;;5065570;28;20022;-61
2022/09/24 10:37:31;;;;;;;2.08;1.10;;;19.60;56.20;;;;;;5083073;28;20338;-61
2022/09/24 10:40:10;;;;;;;1.70;1.20;;;19.60;56.10;;;;;;5083021;28;20028;-62
2022/09/24 10:42:36;;;;;;;1.80;1.35;;;19.60;56.10;;;;;;5082983;28;20365;-60
2022/09/24 10:45:03;;;;;;;1.40;1.30;;;19.70;56.20;;;;;;5082942;28;20090;-61
2022/09/24 10:48:03;;;;;;;1.85;1.30;;;19.60;56.20;;;;;;5082866;28;20316;-61
2022/09/24 10:50:32;;;;;;;1.83;1.00;;;19.60;56.10;;;;;;5082937;28;20084;-60
2022/09/24 10:53:16;;;;;;;2.35;1.58;;;19.70;56.10;;;;;;5082889;28;20182;-60
2022/09/24 10:56:12;;;;;;;1.30;0.98;;;19.70;56.00;;;;;;5082912;28;20019;-61
2022/09/24 10:58:47;;;;;;;1.10;0.90;;;19.70;56.00;;;;;;5085462;28;20024;-60
2022/09/24 11:01:34;;;;;;;1.50;1.38;;;19.70;56.00;;;;;;5086501;28;20016;-61
2022/09/24 11:04:28;;;;;;;1.30;0.90;;;19.80;56.00;;;;;;5086483;28;20016;-61
2022/09/24 11:07:49;;;;;;;1.55;1.10;;;19.70;56.00;;;;;;5086787;28;20099;-61
2022/09/24 11:10:34;;;;;;;1.67;1.02;;;19.70;56.00;;;;;;5008123;28;20092;-60
2022/09/24 11:13:24;;;;;;;1.27;1.05;;;19.70;56.00;;;;;;5024616;28;20014;-60
2022/09/24 11:16:09;;;;;;;1.40;1.10;;;19.80;56.00;;;;;;5072398;28;20371;-61
2022/09/24 11:19:01;;;;;;;1.05;0.90;;;19.70;56.00;;;;;;5086235;28;20032;-60
2022/09/24 11:21:56;;;;;;;1.00;0.90;;;19.80;56.00;;;;;;5068286;28;20023;-63
2022/09/24 11:24:46;;;;;;;1.45;1.10;;;19.80;55.90;;;;;;5086131;28;20013;-61
2022/09/24 11:28:04;;;;;;;1.77;1.20;;;19.80;55.90;;;;;;5085979;28;20371;-61
2022/09/24 11:30:51;;;;;;;1.17;0.90;;;19.80;55.90;;;;;;5024287;28;20022;-61
2022/09/24 11:33:52;;;;;;;1.05;0.90;;;19.80;56.00;;;;;;5085564;28;20016;-60
2022/09/24 11:36:36;;;;;;;2.20;1.20;;;19.80;56.00;;;;;;5068068;28;20012;-61
2022/09/24 11:39:09;;;;;;;1.42;1.08;;;19.80;56.00;;;;;;5085823;28;20027;-61
2022/09/24 11:41:49;;;;;;;1.25;0.90;;;19.90;55.90;;;;;;5067945;28;20332;-60
2022/09/24 11:44:39;;;;;;;2.85;1.65;;;19.90;55.90;;;;;;5085764;28;20258;-60
2022/09/24 11:47:14;;;;;;;1.85;1.08;;;19.90;55.90;;;;;;5085719;28;20024;-61
2022/09/24 11:49:55;;;;;;;1.60;1.20;;;19.90;55.90;;;;;;5085902;28;20020;-60
2022/09/24 11:52:33;;;;;;;1.30;1.10;;;19.90;55.90;;;;;;5085615;28;20111;-61
2022/09/24 11:54:59;;;;;;;1.60;1.10;;;19.90;55.90;;;;;;5067725;28;20017;-61
2022/09/24 11:57:28;;;;;;;1.40;1.13;;;19.90;55.90;;;;;;5085470;28;20012;-61
2022/09/24 12:00:06;;;;;;;1.55;1.10;;;19.90;55.90;;;;;;5085392;28;20020;-61
2022/09/24 12:02:40;;;;;;;2.72;1.02;;;20.00;55.90;;;;;;5085399;28;20013;-60
2022/09/24 12:05:32;;;;;;;4.82;0.85;;;20.00;55.90;;;;;;5085627;28;20023;-60
2022/09/24 12:08:26;;;;;;;1.38;1.02;;;20.00;55.80;;;;;;5085078;28;20027;-61
2022/09/24 12:11:20;;;;;;;1.50;1.20;;;20.00;55.70;;;;;;5085180;28;20017;-61
2022/09/24 12:13:51;;;;;;;1.50;1.30;;;20.00;55.80;;;;;;5077214;28;20063;-62
2022/09/24 12:16:23;;;;;;;1.85;1.45;;;20.00;55.80;;;;;;5085123;28;20054;-60
2022/09/24 12:19:12;;;;;;;1.27;1.00;;;20.00;55.90;;;;;;5085001;28;20035;-60
2022/09/24 12:21:42;;;;;;;1.50;1.30;;;20.00;55.90;;;;;;5085004;28;20027;-60
2022/09/24 12:24:41;;;;;;;1.40;1.20;;;20.00;55.90;;;;;;5084873;28;20013;-60
2022/09/24 12:27:16;;;;;;;0.98;0.73;;;19.90;56.00;;;;;;5084843;28;20012;-60
2022/09/24 12:33:28;;;;;;;1.27;0.90;;;19.90;56.00;;;;;;5084735;28;20019;-61
2022/09/24 12:36:13;;;;;;;1.83;1.15;;;19.90;56.00;;;;;;5084560;28;20096;-60
2022/09/24 12:38:54;;;;;;;1.33;0.90;;;19.90;56.10;;;;;;5084605;28;20016;-61
2022/09/24 12:41:31;;;;;;;1.67;1.10;;;19.90;56.20;;;;;;5084503;28;20031;-60
2022/09/24 12:44:11;;;;;;;1.10;0.90;;;19.80;56.20;;;;;;5084524;28;20024;-61
2022/09/24 12:46:44;;;;;;;2.28;1.25;;;19.80;56.30;;;;;;5084411;28;20078;-59
2022/09/24 12:49:36;;;;;;;1.30;1.20;;;19.80;56.30;;;;;;5084287;28;20020;-61
2022/09/24 12:52:24;;;;;;;1.23;1.13;;;19.80;56.30;;;;;;5084318;28;20016;-61
2022/09/24 12:55:01;;;;;;;1.40;0.95;;;19.80;56.40;;;;;;5084327;28;20013;-61
2022/09/24 12:57:40;;;;;;;1.33;0.97;;;19.80;56.40;;;;;;5084306;28;20027;-60
2022/09/24 13:00:31;;;;;;;2.40;1.30;;;19.80;56.40;;;;;;5084200;28;20549;-61
2022/09/24 13:02:57;;;;;;;1.55;1.20;;;19.80;56.50;;;;;;5084125;28;20239;-60
2022/09/24 13:05:26;;;;;;;1.40;1.10;;;19.80;56.50;;;;;;5084130;28;20053;-61
2022/09/24 13:08:02;;;;;;;1.05;0.85;;;19.80;56.50;;;;;;5083998;28;20312;-61
2022/09/24 13:10:30;;;;;;;2.05;1.13;;;19.80;56.50;;;;;;5084044;28;20055;-60
2022/09/24 13:13:01;;;;;;;1.25;1.15;;;19.70;56.40;;;;;;5084036;28;20017;-61
2022/09/24 13:15:41;;;;;;;1.10;0.90;;;19.80;56.50;;;;;;5083898;28;20032;-61
2022/09/24 13:18:10;;;;;;;1.65;1.20;;;19.80;56.40;;;;;;5083972;28;20020;-61
2022/09/24 13:20:41;;;;;;;1.00;0.90;;;19.80;56.40;;;;;;5083396;28;20024;-60
2022/09/24 13:23:15;;;;;;;1.15;0.80;;;19.80;56.40;;;;;;5083904;28;20092;-60
2022/09/24 13:25:53;;;;;;;1.73;1.08;;;19.80;56.40;;;;;;5083802;28;20019;-61
2022/09/24 13:28:26;;;;;;;2.00;1.20;;;19.90;56.40;;;;;;5083718;28;20016;-60
2022/09/24 13:31:08;;;;;;;1.42;1.13;;;20.00;56.00;;;;;;5083760;28;20016;-60